»·PEaware :: QXE751 KPDX-KGEG

QXE751 :: KPDX-KGEG

FLIGHT INFORMATION

Flight Status: Arrived
Operator:
Horizon Air
More flights by this operator :: More flights under this callsign
Pilot: Mitchell L. (19304)
Aircraft: DEHAVILLAND DASH 8 400
(DH8D)
More flights by this aircraft type
Origin: KPDX Portland Intl
United States
Destination: KGEG Spokane Intl
United States
More flights between these airports :: More routes between these airports
Route: BTG PAPPS ZOOMR ZOOMR1
File this flight plan on PilotEdge
Remarks:
Altitude:
(Current/Filed)
23,000ft
Speed:
(Current/Filed)
325kts
Departed: 24-Jun-19 11:12 AM
Arrived: 24-Jun-19 12:12 PM
Distance/Time
Traveled:
242nm/0:59
Distance/Time
To Go:
Arrived

Flight Plot

Page will automatically refresh every two minutes.


Map Options




Map Legend


Flown Route
Filed Route
Departure Airport
Arrival Airport
Navaid (VOR, NDB)
Fix

Horizontal Profiles

Position Reports

Time Latitude Longitude Heading Altitude Ground
Speed
24-Jun-19 10:30 45.589869 -122.600018 85 35ft 0kts
24-Jun-19 10:31 45.589869 -122.600018 85 35ft 0kts
24-Jun-19 10:32 45.589869 -122.600018 85 35ft 0kts
24-Jun-19 10:33 45.589869 -122.600018 85 35ft 0kts
24-Jun-19 10:34 45.589869 -122.600018 85 35ft 0kts
24-Jun-19 10:35 45.589869 -122.600018 85 35ft 0kts
24-Jun-19 10:36 45.589869 -122.600018 85 35ft 0kts
24-Jun-19 10:37 45.589869 -122.600018 85 35ft 0kts
24-Jun-19 10:38 45.589869 -122.600018 85 35ft 0kts
24-Jun-19 10:39 45.589869 -122.600018 85 35ft 0kts
24-Jun-19 10:40 45.589869 -122.600018 85 35ft 0kts
24-Jun-19 10:41 45.589869 -122.600018 85 35ft 0kts
24-Jun-19 10:42 45.589869 -122.600018 85 35ft 0kts
24-Jun-19 10:43 45.589869 -122.600018 85 35ft 0kts
24-Jun-19 10:44 45.589869 -122.600018 85 35ft 0kts
24-Jun-19 10:45 45.589869 -122.600018 85 35ft 0kts
24-Jun-19 10:46 45.589869 -122.600018 85 35ft 0kts
24-Jun-19 10:47 45.589869 -122.600018 85 35ft 0kts
24-Jun-19 10:48 45.589869 -122.600018 85 35ft 0kts
24-Jun-19 10:49 45.589869 -122.600018 85 35ft 0kts
24-Jun-19 10:50 45.589869 -122.600018 85 35ft 0kts
24-Jun-19 10:51 45.589869 -122.600018 85 35ft 0kts
24-Jun-19 10:52 45.589869 -122.600018 85 35ft 0kts
24-Jun-19 10:53 45.589870 -122.600012 85 35ft 0kts
24-Jun-19 10:54 45.589837 -122.600621 85 35ft 1kts
24-Jun-19 10:55 45.589800 -122.601181 83 35ft 1kts
24-Jun-19 10:56 45.589776 -122.601462 82 35ft 0kts
24-Jun-19 10:57 45.589776 -122.601462 82 35ft 0kts
24-Jun-19 10:58 45.589776 -122.601462 82 35ft 0kts
24-Jun-19 10:59 45.590584 -122.601320 16 35ft 4kts
24-Jun-19 11:00 45.592085 -122.598473 27 35ft 9kts
24-Jun-19 11:01 45.593418 -122.597673 343 35ft 2kts
24-Jun-19 11:02 45.594335 -122.597647 44 35ft 2kts
24-Jun-19 11:03 45.594345 -122.597632 44 35ft 0kts
24-Jun-19 11:04 45.594345 -122.597632 44 35ft 0kts
24-Jun-19 11:05 45.594345 -122.597632 44 35ft 0kts
24-Jun-19 11:07 45.594365 -122.597605 44 35ft 0kts
24-Jun-19 11:08 45.594365 -122.597605 44 35ft 0kts
24-Jun-19 11:09 45.594380 -122.597583 44 35ft 1kts
24-Jun-19 11:10 45.594737 -122.595402 116 35ft 10kts
24-Jun-19 11:11 45.579977 -122.556600 116 1045ft 151kts
24-Jun-19 11:12 45.561696 -122.502871 117 3208ft 167kts
24-Jun-19 11:13 45.538931 -122.441205 117 5535ft 196kts
24-Jun-19 11:14 45.511222 -122.366815 117 7005ft 232kts
24-Jun-19 11:15 45.484898 -122.295940 117 7577ft 248kts
24-Jun-19 11:16 45.484914 -122.201351 55 10011ft 261kts
24-Jun-19 11:17 45.524373 -122.112428 56 12232ft 283kts
24-Jun-19 11:18 45.563230 -122.020443 57 13664ft 314kts
24-Jun-19 11:19 45.609535 -121.910136 56 15209ft 331kts
24-Jun-19 11:20 45.657480 -121.795577 56 16737ft 337kts
24-Jun-19 11:21 45.705617 -121.680136 56 18249ft 339kts
24-Jun-19 11:22 45.752358 -121.567588 56 19715ft 337kts
24-Jun-19 11:23 45.800030 -121.452343 56 21227ft 333kts
24-Jun-19 11:24 45.842072 -121.350353 55 22529ft 330kts
24-Jun-19 11:25 45.880597 -121.256560 56 23142ft 344kts
24-Jun-19 11:26 45.930197 -121.135119 56 23134ft 373kts
24-Jun-19 11:27 45.983960 -121.002750 56 23075ft 388kts
24-Jun-19 11:28 46.039024 -120.866543 57 23047ft 393kts
24-Jun-19 11:29 46.094233 -120.729436 57 23047ft 394kts
24-Jun-19 11:30 46.143087 -120.607584 57 23045ft 395kts
24-Jun-19 11:31 46.198058 -120.469838 57 23042ft 396kts
24-Jun-19 11:32 46.252071 -120.333810 57 23036ft 396kts
24-Jun-19 11:33 46.306523 -120.195999 57 23034ft 395kts
24-Jun-19 11:34 46.361325 -120.056589 57 23029ft 396kts
24-Jun-19 11:35 46.415971 -119.916850 57 23027ft 395kts
24-Jun-19 11:36 46.483011 -119.792013 42 23029ft 390kts
24-Jun-19 11:37 46.557689 -119.677327 42 23029ft 390kts
24-Jun-19 11:38 46.632174 -119.562628 42 23030ft 390kts
24-Jun-19 11:39 46.706961 -119.446940 42 23030ft 390kts
24-Jun-19 11:40 46.777651 -119.337132 43 23021ft 390kts
24-Jun-19 11:41 46.852446 -119.220468 43 23010ft 390kts
24-Jun-19 11:42 46.927096 -119.103503 43 23008ft 389kts
24-Jun-19 11:43 47.001227 -118.986839 43 23013ft 389kts
24-Jun-19 11:44 47.071367 -118.875985 43 22783ft 396kts
24-Jun-19 11:45 47.146596 -118.756162 44 20862ft 401kts
24-Jun-19 11:46 47.219051 -118.640869 44 18854ft 376kts
24-Jun-19 11:47 47.288253 -118.530212 45 16839ft 358kts
24-Jun-19 11:48 47.353079 -118.426057 45 14819ft 332kts
24-Jun-19 11:49 47.408664 -118.336496 46 13044ft 309kts
24-Jun-19 11:50 47.461014 -118.256413 43 12958ft 225kts
24-Jun-19 11:51 47.497925 -118.206116 17 12764ft 164kts
24-Jun-19 11:52 47.534332 -118.152996 49 13011ft 212kts
24-Jun-19 11:53 47.577929 -118.083223 44 12031ft 245kts
24-Jun-19 11:54 47.625542 -118.012184 44 10685ft 236kts
24-Jun-19 11:55 47.670389 -117.945065 45 9465ft 223kts
24-Jun-19 11:56 47.713070 -117.881100 45 8640ft 214kts
24-Jun-19 11:57 47.754444 -117.818871 45 7826ft 208kts
24-Jun-19 11:58 47.794620 -117.758310 45 7023ft 203kts
24-Jun-19 11:59 47.834157 -117.698564 45 6212ft 201kts
24-Jun-19 12:00 47.869748 -117.638136 70 5591ft 189kts
24-Jun-19 12:01 47.873817 -117.561647 88 5394ft 193kts
24-Jun-19 12:02 47.875715 -117.474879 88 5466ft 210kts
24-Jun-19 12:03 47.870650 -117.394576 125 5288ft 190kts
24-Jun-19 12:04 47.829110 -117.352357 150 5004ft 181kts
24-Jun-19 12:05 47.787425 -117.317859 162 4984ft 186kts
24-Jun-19 12:07 47.744215 -117.347666 225 4367ft 174kts
24-Jun-19 12:08 47.715142 -117.391648 225 5160ft 147kts
24-Jun-19 12:09 47.684996 -117.437205 225 4323ft 155kts
24-Jun-19 12:10 47.654474 -117.483680 223 3224ft 142kts
24-Jun-19 12:11 47.628946 -117.521807 221 2471ft 88kts
24-Jun-19 12:12 47.616573 -117.540233 222 2382ft 17kts
24-Jun-19 12:13 47.614561 -117.546597 340 2382ft 21kts
24-Jun-19 12:14 47.618781 -117.541052 45 2382ft 24kts
24-Jun-19 12:15 47.622633 -117.536770 125 2382ft 15kts

Navigation Log

Ident Type
Flight plan parsing failed, navigation log unavailable